San Angelo Regional-Mathis, TX

10:39 PM CDT on March 31, 2015 (GMT -0500)
Ozona Municipal | | Change Station
CLOSE
Current Station
Airport
Location: Ozona,
Elevation: 2382 ft
Nearby Weather Stations

Elev 2382 ft 30.74 °N, 101.20 °W | Updated 1 hour ago

Clear
Clear
68 °F
Feels Like 68 °F
N
6
Wind Variable Wind from South

Today
High -- | Low -- °F
--% Chance of Precip.
Yesterday
High -- | Low -- °F
Precip. -- in
7:32 AM 8:00 PM
Waxing Gibbous, 90% visible
Pressure 29.98 in
Visibility 10.0 miles
Clouds Clear
Dew Point 59 °F
Humidity 73%
Rainfall 0.00 in
Snow Depth Not available.
UV 0 out of 12
Pollen 11.30 out of 12
Air Quality Not available.
Flu Activity Not available.
METAR KOZA 010215Z AUTO 18005KT 10SM CLR 20/15 A2998 RMK AO2 LTG DSNT W

More Conditions Fewer Conditions

Pressure 29.98 in
Visibility 10.0 miles
Clouds Clear
Dew Point 59 °F
Humidity 73%
Rainfall 0.00 in
Snow Depth Not available.
UV 0 out of 12
Pollen 11.30 out of 12
Air Quality Not available.
Flu Activity Not available.
METAR KOZA 010215Z AUTO 18005KT 10SM CLR 20/15 A2998 RMK AO2 LTG DSNT W

More Conditions Fewer Conditions

Nowcast | as of 10:20 PM CDT on March 31, 2015

Showers and isolated thunderstorms will move through northern Crockett County into Irion...Tom Green and northern Schleicher County through midnight. Brief gusty winds...occasional lightning and small hail will be possible with the thunderstorms. Hourly rainfall amounts will be around one tenth of an inch with higher amounts in the vicinity of the thunderstorms.

×

10-Day Weather Forecast

Almanac

Astronomy

Mar. 31, 2015 Rise Set
Actual Time
Civil Twilight
Nautical Twilight
Astronomical Twilight
Moon
Length of Visible Light
Length of Day
Tomorrow will be .
, % of the Moon is Illuminated

Today's Extremes

State Highs State Lows

Community

WunderPhotos

Upload Photos

1,809,898 photos uploaded!

WunderBlogs® & News

Nearby

Air Quality

  Air Quality AQ Index Pollutant
Not available.

Snow Depth

Station Depth Elevation

Earthquake Activity

City Distance Mag. Time & Date
Minimum magnitude displayed is 2.5.

Coastal Water Temperatures

Place Temperature

Stations

Nearby Weather Stations

Station Location Temp. Windchill Dew Point Humidity Wind Precip. Elev Updated Type